createdAt,value
2019-05-03T00:02:27.397Z,100.00
2019-05-03T00:05:26.398Z,100.00
2019-05-03T00:08:22.188Z,100.00
2019-05-03T00:10:51.838Z,100.00
2019-05-03T00:13:21.864Z,100.00
2019-05-03T00:16:06.536Z,100.00
2019-05-03T00:18:35.754Z,100.00
2019-05-03T00:21:04.964Z,100.00
2019-05-03T00:23:34.206Z,100.00
2019-05-03T00:26:03.421Z,100.00
2019-05-03T00:28:32.704Z,100.00
2019-05-03T00:31:02.219Z,100.00
2019-05-03T00:33:31.856Z,100.00
2019-05-03T00:36:17.577Z,100.00
2019-05-03T00:38:47.024Z,100.00
2019-05-03T00:41:16.352Z,100.00
2019-05-03T00:43:45.591Z,100.00
2019-05-03T00:46:17.879Z,100.00
2019-05-03T00:48:47.146Z,100.00
2019-05-03T00:51:16.394Z,100.00
2019-05-03T00:53:45.651Z,100.00
2019-05-03T00:56:14.859Z,100.00
2019-05-03T00:58:54.258Z,100.00
2019-05-03T01:01:23.507Z,100.00
2019-05-03T01:03:52.875Z,100.00
2019-05-03T01:06:22.396Z,100.00
2019-05-03T01:08:52.346Z,100.00
2019-05-03T01:11:22.206Z,100.00
2019-05-03T01:13:52.325Z,100.00
2019-05-03T01:16:23.050Z,100.00
2019-05-03T01:18:52.546Z,100.00
2019-05-03T01:21:22.527Z,100.00
2019-05-03T01:23:52.639Z,100.00
2019-05-03T01:26:22.634Z,100.00
2019-05-03T01:28:52.396Z,100.00
2019-05-03T01:31:22.871Z,100.00
2019-05-03T01:33:52.301Z,100.00
2019-05-03T01:36:22.761Z,100.00
2019-05-03T01:38:52.954Z,100.00
2019-05-03T01:41:23.723Z,100.00
2019-05-03T01:43:53.340Z,100.00
2019-05-03T01:46:23.091Z,100.00
2019-05-03T01:49:17.499Z,100.00
2019-05-03T01:51:57.471Z,100.00
2019-05-03T01:54:26.725Z,100.00
2019-05-03T01:56:59.122Z,100.00
2019-05-03T01:59:26.936Z,100.00
2019-05-03T02:02:14.116Z,100.00
2019-05-03T02:04:47.488Z,100.00
2019-05-03T02:07:16.717Z,100.00
2019-05-03T02:09:45.975Z,100.00
2019-05-03T02:12:15.217Z,100.00
2019-05-03T02:14:44.456Z,100.00
2019-05-03T02:17:13.711Z,100.00
2019-05-03T02:19:42.913Z,100.00
2019-05-03T02:22:12.208Z,100.00
2019-05-03T02:24:42.286Z,100.00
2019-05-03T02:27:12.727Z,100.00
2019-05-03T02:29:42.058Z,100.00
2019-05-03T02:32:13.181Z,100.00
2019-05-03T02:34:43.966Z,100.00
2019-05-03T02:37:13.967Z,100.00
2019-05-03T02:39:43.391Z,100.00
2019-05-03T02:42:15.866Z,100.00
2019-05-03T02:44:46.228Z,100.00
2019-05-03T02:47:43.034Z,100.00
2019-05-03T02:50:16.737Z,100.00
2019-05-03T02:52:46.105Z,100.00
2019-05-03T02:55:16.438Z,100.00
2019-05-03T02:57:46.845Z,100.00
2019-05-03T03:00:16.865Z,100.00
2019-05-03T03:02:46.583Z,100.00
2019-05-03T03:05:16.761Z,100.00
2019-05-03T03:07:47.179Z,100.00
2019-05-03T03:10:17.216Z,100.00
2019-05-03T03:12:49.108Z,100.00
2019-05-03T03:15:18.465Z,100.00
2019-05-03T03:17:49.873Z,100.00
2019-05-03T03:20:19.660Z,100.00
2019-05-03T03:22:50.764Z,100.00
2019-05-03T03:25:25.961Z,100.00
2019-05-03T03:27:59.048Z,100.00
2019-05-03T03:30:48.660Z,100.00
2019-05-03T03:33:18.895Z,100.00
2019-05-03T03:35:49.246Z,100.00
2019-05-03T03:38:19.560Z,100.00
2019-05-03T03:40:50.090Z,100.00
2019-05-03T03:43:22.009Z,100.00
2019-05-03T03:45:52.257Z,100.00
2019-05-03T03:48:22.293Z,100.00
2019-05-03T03:50:56.147Z,100.00
2019-05-03T03:53:28.362Z,100.00
2019-05-03T03:55:59.844Z,100.00
2019-05-03T03:58:29.329Z,100.00
2019-05-03T04:00:59.002Z,100.00
2019-05-03T04:03:28.328Z,100.00
2019-05-03T04:05:57.610Z,100.00
2019-05-03T04:08:27.093Z,100.00
2019-05-03T04:10:56.521Z,100.00
2019-05-03T04:13:26.594Z,100.00
2019-05-03T04:16:12.882Z,100.00
2019-05-03T04:18:54.995Z,100.00
2019-05-03T04:21:25.509Z,100.00
2019-05-03T04:23:55.646Z,100.00
2019-05-03T04:26:29.723Z,100.00
2019-05-03T04:28:57.528Z,100.00
2019-05-03T04:31:26.833Z,100.00
2019-05-03T04:33:56.444Z,100.00
2019-05-03T04:36:26.363Z,100.00
2019-05-03T04:38:56.303Z,100.00
2019-05-03T04:41:26.895Z,100.00
2019-05-03T04:43:56.484Z,100.00
2019-05-03T04:46:26.275Z,100.00
2019-05-03T04:48:56.311Z,100.00
2019-05-03T04:51:26.205Z,100.00
2019-05-03T04:54:16.147Z,100.00
2019-05-03T04:56:46.404Z,100.00
2019-05-03T04:59:16.335Z,100.00
2019-05-03T05:01:46.289Z,100.00
2019-05-03T05:04:16.283Z,100.00
2019-05-03T05:06:45.719Z,100.00
2019-05-03T05:09:15.699Z,100.00
2019-05-03T05:11:45.773Z,100.00
2019-05-03T05:14:15.599Z,100.00
2019-05-03T05:16:46.668Z,100.00
2019-05-03T05:19:19.444Z,100.00
2019-05-03T05:21:54.936Z,100.00
2019-05-03T05:24:25.577Z,100.00
2019-05-03T05:27:20.203Z,100.00
2019-05-03T05:29:49.439Z,100.00
2019-05-03T05:32:18.739Z,100.00
2019-05-03T05:34:48.215Z,100.00
2019-05-03T05:37:17.494Z,100.00
2019-05-03T05:39:46.715Z,100.00
2019-05-03T05:42:15.956Z,100.00
2019-05-03T05:44:45.493Z,100.00
2019-05-03T05:47:38.446Z,100.00
2019-05-03T05:50:35.953Z,100.00
2019-05-03T05:53:05.209Z,100.00
2019-05-03T05:55:51.244Z,100.00
2019-05-03T05:58:44.896Z,100.00
2019-05-03T06:01:18.528Z,100.00
2019-05-03T06:03:47.738Z,100.00
2019-05-03T06:06:24.490Z,100.00
2019-05-03T06:09:05.109Z,100.00
2019-05-03T06:11:42.601Z,100.00
2019-05-03T06:14:15.887Z,100.00
2019-05-03T06:17:14.687Z,100.00
2019-05-03T06:20:01.795Z,100.00
2019-05-03T06:22:44.857Z,100.00
2019-05-03T06:25:28.375Z,100.00
2019-05-03T06:27:58.334Z,100.00
2019-05-03T06:30:40.442Z,100.00
2019-05-03T06:33:09.682Z,100.00
2019-05-03T06:35:38.903Z,100.00
2019-05-03T06:38:08.128Z,100.00
2019-05-03T06:40:37.388Z,100.00
2019-05-03T06:43:15.619Z,100.00
2019-05-03T06:45:46.597Z,100.00
2019-05-03T06:48:17.561Z,100.00
2019-05-03T06:50:46.534Z,100.00
2019-05-03T06:53:15.794Z,100.00
2019-05-03T06:55:48.347Z,100.00
2019-05-03T06:58:30.046Z,100.00
2019-05-03T07:01:12.149Z,100.00
2019-05-03T07:03:49.499Z,100.00
2019-05-03T07:06:40.466Z,100.00
2019-05-03T07:09:25.387Z,100.00
2019-05-03T07:11:55.523Z,100.00
2019-05-03T07:14:24.933Z,100.00
2019-05-03T07:16:55.387Z,100.00
2019-05-03T07:19:25.075Z,100.00
2019-05-03T07:21:54.670Z,100.00
2019-05-03T07:24:24.861Z,100.00
2019-05-03T07:26:55.116Z,100.00
2019-05-03T07:29:25.504Z,100.00
2019-05-03T07:31:54.994Z,100.00
2019-05-03T07:34:24.822Z,100.00
2019-05-03T07:36:55.525Z,100.00
2019-05-03T07:39:25.120Z,100.00
2019-05-03T07:41:55.062Z,100.00
2019-05-03T07:44:25.535Z,100.00
2019-05-03T07:46:55.514Z,100.00
2019-05-03T07:49:25.085Z,100.00
2019-05-03T07:51:55.334Z,100.00
2019-05-03T07:54:24.949Z,100.00
2019-05-03T07:56:59.035Z,100.00
2019-05-03T07:59:28.262Z,100.00
2019-05-03T08:01:58.876Z,100.00
2019-05-03T08:04:28.141Z,100.00
2019-05-03T08:06:57.498Z,100.00
2019-05-03T08:09:26.709Z,100.00
2019-05-03T08:11:55.942Z,100.00
2019-05-03T08:14:25.347Z,100.00
2019-05-03T08:16:54.881Z,100.00
2019-05-03T08:19:27.033Z,100.00
2019-05-03T08:21:56.641Z,100.00
2019-05-03T08:24:25.997Z,100.00
2019-05-03T08:26:55.829Z,100.00
2019-05-03T08:29:25.215Z,100.00
2019-05-03T08:32:05.037Z,100.00
2019-05-03T08:34:42.005Z,100.00
2019-05-03T08:37:15.391Z,100.00
2019-05-03T08:39:44.860Z,100.00
2019-05-03T08:42:20.951Z,100.00
2019-05-03T08:44:50.179Z,100.00
2019-05-03T08:47:19.741Z,100.00
2019-05-03T08:49:48.961Z,100.00
2019-05-03T08:52:18.205Z,100.00
2019-05-03T08:54:47.415Z,100.00
2019-05-03T08:57:16.663Z,100.00
2019-05-03T08:59:45.879Z,100.00
2019-05-03T09:02:17.555Z,100.00
2019-05-03T09:04:46.418Z,100.00
2019-05-03T09:07:15.809Z,100.00
2019-05-03T09:09:51.377Z,100.00
2019-05-03T09:12:20.627Z,100.00
2019-05-03T09:14:50.796Z,100.00
2019-05-03T09:17:20.125Z,100.00
2019-05-03T09:19:49.645Z,100.00
2019-05-03T09:22:18.892Z,100.00
2019-05-03T09:24:48.115Z,100.00
2019-05-03T09:27:17.309Z,100.00
2019-05-03T09:29:46.559Z,100.00
2019-05-03T09:32:15.809Z,100.00
2019-05-03T09:34:45.057Z,100.00
2019-05-03T09:37:15.525Z,100.00
2019-05-03T09:39:44.838Z,100.00
2019-05-03T09:42:15.471Z,100.00
2019-05-03T09:44:45.202Z,100.00
2019-05-03T09:47:14.713Z,100.00
2019-05-03T09:49:45.351Z,100.00
2019-05-03T09:52:16.008Z,100.00
2019-05-03T09:54:49.392Z,100.00
2019-05-03T09:57:18.590Z,100.00
2019-05-03T09:59:56.599Z,100.00
2019-05-03T10:02:18.775Z,100.00
2019-05-03T10:04:47.997Z,100.00
2019-05-03T10:07:17.225Z,100.00
2019-05-03T10:09:46.482Z,100.00
2019-05-03T10:12:20.902Z,100.00
2019-05-03T10:14:50.164Z,100.00
2019-05-03T10:17:41.980Z,100.00
2019-05-03T10:20:12.943Z,100.00
2019-05-03T10:22:42.455Z,100.00
2019-05-03T10:25:12.129Z,100.00
2019-05-03T10:27:47.481Z,100.00
2019-05-03T10:30:26.025Z,100.00
2019-05-03T10:33:15.711Z,100.00
2019-05-03T10:35:46.026Z,100.00
2019-05-03T10:38:15.233Z,100.00
2019-05-03T10:40:45.239Z,100.00
2019-05-03T10:43:14.684Z,100.00
2019-05-03T10:45:44.970Z,100.00
2019-05-03T10:48:15.437Z,100.00
2019-05-03T10:50:44.978Z,100.00
2019-05-03T10:53:28.334Z,100.00
2019-05-03T10:56:22.713Z,100.00
2019-05-03T10:59:08.006Z,100.00
2019-05-03T11:01:54.877Z,100.00
2019-05-03T11:04:24.677Z,100.00
2019-05-03T11:06:55.076Z,100.00
2019-05-03T11:09:25.951Z,100.00
2019-05-03T11:11:55.690Z,100.00
2019-05-03T11:14:25.511Z,100.00
2019-05-03T11:16:55.351Z,100.00
2019-05-03T11:19:25.408Z,100.00
2019-05-03T11:21:55.094Z,100.00
2019-05-03T11:24:27.193Z,100.00
2019-05-03T11:27:00.041Z,100.00
2019-05-03T11:29:30.866Z,100.00
2019-05-03T11:32:22.188Z,100.00
2019-05-03T11:35:14.977Z,100.00
2019-05-03T11:38:06.383Z,100.00
2019-05-03T11:40:35.617Z,100.00
2019-05-03T11:43:04.877Z,100.00
2019-05-03T11:45:35.405Z,100.00
2019-05-03T11:48:04.967Z,100.00
2019-05-03T11:50:34.902Z,100.00
2019-05-03T11:53:05.151Z,100.00
2019-05-03T11:55:35.272Z,100.00
2019-05-03T11:58:18.175Z,100.00
2019-05-03T12:00:49.065Z,100.00
2019-05-03T12:03:26.812Z,100.00
2019-05-03T12:05:57.628Z,100.00
2019-05-03T12:08:26.865Z,100.00
2019-05-03T12:11:01.093Z,100.00
2019-05-03T12:13:30.425Z,100.00
2019-05-03T12:16:00.932Z,100.00
2019-05-03T12:18:44.784Z,100.00
2019-05-03T12:21:04.017Z,100.00
2019-05-03T12:23:36.290Z,100.00
2019-05-03T12:26:11.008Z,100.00
2019-05-03T12:28:36.152Z,100.00
2019-05-03T12:31:06.130Z,100.00
2019-05-03T12:33:37.051Z,100.00
2019-05-03T12:36:06.818Z,100.00
2019-05-03T12:38:36.152Z,100.00
2019-05-03T12:41:05.774Z,100.00
2019-05-03T12:43:35.303Z,100.00
2019-05-03T12:46:05.219Z,100.00
2019-05-03T12:48:35.438Z,100.00
2019-05-03T12:51:06.193Z,100.00
2019-05-03T12:53:36.416Z,100.00
2019-05-03T12:56:11.046Z,100.00
2019-05-03T12:58:52.053Z,100.00
2019-05-03T13:01:41.814Z,100.00
2019-05-03T13:04:09.618Z,100.00
2019-05-03T13:06:41.889Z,95.25
2019-05-03T13:09:50.447Z,91.94
2019-05-03T13:12:22.669Z,94.55
2019-05-03T13:14:52.088Z,88.13
2019-05-03T13:17:37.366Z,96.57
2019-05-03T13:20:08.748Z,88.70
2019-05-03T13:22:38.104Z,84.15
2019-05-03T13:25:09.352Z,79.56
2019-05-03T13:27:38.902Z,80.52
2019-05-03T13:30:10.152Z,83.26
2019-05-03T13:32:39.684Z,79.29
2019-05-03T13:35:56.250Z,69.62
2019-05-03T13:38:27.327Z,70.75
2019-05-03T13:40:56.755Z,73.68
2019-05-03T13:43:31.401Z,73.21
2019-05-03T13:46:01.128Z,74.78
2019-05-03T13:48:41.686Z,76.25
2019-05-03T13:51:01.677Z,80.91
2019-05-03T13:53:30.973Z,82.43
2019-05-03T13:56:00.668Z,86.36
2019-05-03T13:58:30.342Z,86.52
2019-05-03T14:00:59.917Z,90.08
2019-05-03T14:03:29.307Z,89.50
2019-05-03T14:05:58.698Z,92.19
2019-05-03T14:08:28.651Z,92.14
2019-05-03T14:11:15.425Z,90.80
2019-05-03T14:13:44.875Z,89.46
2019-05-03T14:16:14.495Z,89.97
2019-05-03T14:18:45.663Z,88.81
2019-05-03T14:21:43.317Z,92.00
2019-05-03T14:24:15.814Z,98.00
2019-05-03T14:26:45.242Z,94.88
2019-05-03T14:29:15.059Z,96.23
2019-05-03T14:31:45.374Z,96.71
2019-05-03T14:34:17.678Z,94.20
2019-05-03T14:36:47.011Z,93.57
2019-05-03T14:39:16.294Z,93.67
2019-05-03T14:41:47.160Z,85.84
2019-05-03T14:44:18.312Z,79.60
2019-05-03T14:46:47.794Z,81.23
2019-05-03T14:49:17.706Z,81.41
2019-05-03T14:51:47.076Z,85.03
2019-05-03T14:54:16.387Z,88.01
2019-05-03T14:56:56.020Z,91.71
2019-05-03T14:59:41.390Z,91.13
2019-05-03T15:02:20.524Z,96.58
2019-05-03T15:04:49.766Z,100.00
2019-05-03T15:07:20.292Z,100.00
2019-05-03T15:09:49.542Z,100.00
2019-05-03T15:12:19.663Z,100.00
2019-05-03T15:14:49.176Z,100.00
2019-05-03T15:17:18.486Z,100.00
2019-05-03T15:19:47.824Z,100.00
2019-05-03T15:22:17.184Z,100.00
2019-05-03T15:24:46.560Z,100.00
2019-05-03T15:27:15.933Z,100.00
2019-05-03T15:29:52.211Z,100.00
2019-05-03T15:32:22.788Z,100.00
2019-05-03T15:34:52.262Z,100.00
2019-05-03T15:37:22.120Z,100.00
2019-05-03T15:39:51.841Z,100.00
2019-05-03T15:42:22.575Z,100.00
2019-05-03T15:44:59.329Z,100.00
2019-05-03T15:47:36.073Z,100.00
2019-05-03T15:50:35.617Z,100.00
2019-05-03T15:53:05.344Z,100.00
2019-05-03T15:55:34.699Z,100.00
2019-05-03T15:58:04.876Z,100.00
2019-05-03T16:00:45.610Z,100.00
2019-05-03T16:03:27.517Z,100.00
2019-05-03T16:05:56.801Z,100.00
2019-05-03T16:08:26.194Z,100.00
2019-05-03T16:10:55.569Z,100.00
2019-05-03T16:13:35.112Z,100.00
2019-05-03T16:16:05.357Z,100.00
2019-05-03T16:18:35.175Z,100.00
2019-05-03T16:21:05.036Z,100.00
2019-05-03T16:23:34.528Z,100.00
2019-05-03T16:26:05.004Z,100.00
2019-05-03T16:28:46.085Z,100.00
2019-05-03T16:31:16.775Z,100.00
2019-05-03T16:33:48.796Z,100.00
2019-05-03T16:36:19.161Z,100.00
2019-05-03T16:38:48.368Z,100.00
2019-05-03T16:41:18.277Z,100.00
2019-05-03T16:43:47.496Z,100.00
2019-05-03T16:46:16.845Z,100.00
2019-05-03T16:48:46.069Z,100.00
2019-05-03T16:51:17.201Z,100.00
2019-05-03T16:53:46.682Z,100.00
2019-05-03T16:56:17.275Z,100.00
2019-05-03T16:58:46.875Z,100.00
2019-05-03T17:01:18.167Z,100.00
2019-05-03T17:03:52.211Z,100.00
2019-05-03T17:06:35.279Z,100.00
2019-05-03T17:09:24.874Z,100.00
2019-05-03T17:12:09.794Z,100.00
2019-05-03T17:14:39.002Z,100.00
2019-05-03T17:17:08.290Z,100.00
2019-05-03T17:19:37.533Z,100.00
2019-05-03T17:22:06.792Z,100.00
2019-05-03T17:24:36.267Z,100.00
2019-05-03T17:27:06.102Z,100.00
2019-05-03T17:29:35.363Z,100.00
2019-05-03T17:32:05.081Z,100.00
2019-05-03T17:34:34.730Z,100.00
2019-05-03T17:37:04.971Z,100.00
2019-05-03T17:39:54.743Z,100.00
2019-05-03T17:42:45.193Z,100.00
2019-05-03T17:45:17.027Z,100.00
2019-05-03T17:47:46.260Z,100.00
2019-05-03T17:50:15.470Z,100.00
2019-05-03T17:52:54.486Z,100.00
2019-05-03T17:55:40.981Z,100.00
2019-05-03T17:58:25.892Z,100.00
2019-05-03T18:01:20.326Z,100.00
2019-05-03T18:04:03.971Z,100.00
2019-05-03T18:06:27.483Z,100.00
2019-05-03T18:09:28.059Z,100.00
2019-05-03T18:12:08.499Z,100.00
2019-05-03T18:14:41.713Z,100.00
2019-05-03T18:17:14.796Z,100.00
2019-05-03T18:19:44.833Z,100.00
2019-05-03T18:22:15.258Z,100.00
2019-05-03T18:24:45.533Z,100.00
2019-05-03T18:27:16.895Z,100.00
2019-05-03T18:29:47.337Z,100.00
2019-05-03T18:32:16.782Z,100.00
2019-05-03T18:34:45.910Z,100.00
2019-05-03T18:37:18.014Z,100.00
2019-05-03T18:39:47.383Z,100.00
2019-05-03T18:42:24.578Z,100.00
2019-05-03T18:45:11.888Z,100.00
2019-05-03T18:47:41.621Z,100.00
2019-05-03T18:50:10.866Z,100.00
2019-05-03T18:52:40.110Z,100.00
2019-05-03T18:55:17.762Z,100.00
2019-05-03T18:57:46.999Z,100.00
2019-05-03T19:00:19.418Z,100.00
2019-05-03T19:02:50.791Z,100.00
2019-05-03T19:05:21.931Z,100.00
2019-05-03T19:08:15.210Z,100.00
2019-05-03T19:10:57.883Z,100.00
2019-05-03T19:13:30.466Z,100.00
2019-05-03T19:16:04.390Z,100.00
2019-05-03T19:18:38.690Z,100.00
2019-05-03T19:21:08.403Z,100.00
2019-05-03T19:23:37.943Z,100.00
2019-05-03T19:26:07.191Z,100.00
2019-05-03T19:28:36.902Z,100.00
2019-05-03T19:31:06.452Z,100.00
2019-05-03T19:33:37.267Z,100.00
2019-05-03T19:36:06.852Z,100.00
2019-05-03T19:38:36.078Z,100.00
2019-05-03T19:41:05.576Z,100.00
2019-05-03T19:43:35.706Z,100.00
2019-05-03T19:46:07.343Z,100.00
2019-05-03T19:48:41.473Z,100.00
2019-05-03T19:51:18.484Z,100.00
2019-05-03T19:53:52.158Z,100.00
2019-05-03T19:56:22.573Z,100.00
2019-05-03T19:58:55.848Z,100.00
2019-05-03T20:01:44.098Z,100.00
2019-05-03T20:04:32.278Z,100.00
2019-05-03T20:07:20.842Z,100.00
2019-05-03T20:09:50.394Z,100.00
2019-05-03T20:12:21.192Z,100.00
2019-05-03T20:14:50.792Z,100.00
2019-05-03T20:17:20.121Z,100.00
2019-05-03T20:19:49.386Z,100.00
2019-05-03T20:22:18.641Z,100.00
2019-05-03T20:24:47.978Z,100.00
2019-05-03T20:27:17.251Z,100.00
2019-05-03T20:29:46.887Z,100.00
2019-05-03T20:32:16.152Z,100.00
2019-05-03T20:34:45.393Z,100.00
2019-05-03T20:37:14.834Z,100.00
2019-05-03T20:39:44.470Z,100.00
2019-05-03T20:42:16.416Z,100.00
2019-05-03T20:44:57.101Z,100.00
2019-05-03T20:47:40.083Z,100.00
2019-05-03T20:50:15.788Z,100.00
2019-05-03T20:52:45.739Z,100.00
2019-05-03T20:55:15.671Z,100.00
2019-05-03T20:57:45.998Z,100.00
2019-05-03T21:00:19.012Z,100.00
2019-05-03T21:02:53.531Z,100.00
2019-05-03T21:05:29.623Z,100.00
2019-05-03T21:07:51.627Z,100.00
2019-05-03T21:10:20.901Z,100.00
2019-05-03T21:12:50.391Z,100.00
2019-05-03T21:15:35.821Z,100.00
2019-05-03T21:18:18.634Z,100.00
2019-05-03T21:20:59.621Z,100.00
2019-05-03T21:23:30.954Z,100.00
2019-05-03T21:26:13.418Z,100.00
2019-05-03T21:28:41.216Z,100.00
2019-05-03T21:31:10.494Z,100.00
2019-05-03T21:33:40.031Z,100.00
2019-05-03T21:36:09.266Z,100.00
2019-05-03T21:38:40.816Z,100.00
2019-05-03T21:41:10.052Z,100.00
2019-05-03T21:43:39.673Z,100.00
2019-05-03T21:46:32.648Z,100.00
2019-05-03T21:49:10.635Z,100.00
2019-05-03T21:51:41.284Z,100.00
2019-05-03T21:54:15.538Z,100.00
2019-05-03T21:56:44.862Z,100.00
2019-05-03T21:59:14.131Z,100.00
2019-05-03T22:01:46.784Z,100.00
2019-05-03T22:04:16.042Z,100.00
2019-05-03T22:06:45.280Z,100.00
2019-05-03T22:09:14.614Z,100.00
2019-05-03T22:11:44.678Z,100.00
2019-05-03T22:14:20.950Z,100.00
2019-05-03T22:17:09.493Z,100.00
2019-05-03T22:19:38.726Z,100.00
2019-05-03T22:22:28.601Z,100.00
2019-05-03T22:24:58.526Z,100.00
2019-05-03T22:27:32.090Z,100.00
2019-05-03T22:30:01.375Z,100.00
2019-05-03T22:32:30.933Z,100.00
2019-05-03T22:35:00.205Z,100.00
2019-05-03T22:37:29.750Z,100.00
2019-05-03T22:39:59.011Z,100.00
2019-05-03T22:42:30.246Z,100.00
2019-05-03T22:45:00.529Z,100.00
2019-05-03T22:47:29.758Z,100.00
2019-05-03T22:49:59.267Z,100.00
2019-05-03T22:52:28.770Z,100.00
2019-05-03T22:54:58.046Z,100.00
2019-05-03T22:57:28.164Z,100.00
2019-05-03T22:59:58.102Z,100.00
2019-05-03T23:02:27.336Z,100.00
2019-05-03T23:04:56.610Z,100.00
2019-05-03T23:07:25.843Z,100.00
2019-05-03T23:09:55.083Z,100.00
2019-05-03T23:12:25.113Z,100.00
2019-05-03T23:14:55.085Z,100.00
2019-05-03T23:17:25.402Z,100.00
2019-05-03T23:19:59.563Z,100.00
2019-05-03T23:22:31.273Z,100.00
2019-05-03T23:25:00.526Z,100.00
2019-05-03T23:27:30.124Z,100.00
2019-05-03T23:30:00.463Z,100.00
2019-05-03T23:32:30.091Z,100.00
2019-05-03T23:34:59.330Z,100.00
2019-05-03T23:37:28.681Z,100.00
2019-05-03T23:39:57.942Z,100.00
2019-05-03T23:42:27.193Z,100.00
2019-05-03T23:44:56.411Z,100.00
2019-05-03T23:47:46.297Z,100.00
2019-05-03T23:50:20.384Z,100.00
2019-05-03T23:52:49.650Z,100.00
2019-05-03T23:55:27.271Z,100.00
2019-05-03T23:57:56.536Z,100.00
